Time;durP1;ratioP1;P1;durP2;ratioP2;P2;SDS_P1;SDS_P2;PMS_P1;PMS_P2;Temp;Humidity;BMP_temperature;BMP_pressure;BME280_temperature;BME280_humidity;BME280_pressure;Samples;Min_cycle;Max_cycle;Signal;HPM_P1;HPM_P2
2022/07/16 00:03:26;;;;;;;4.57;1.50;;;15.70;99.90;;;;;;5094600;28;20432;-68
2022/07/16 00:05:52;;;;;;;2.85;1.00;;;15.60;99.90;;;;;;5094796;28;20196;-68
2022/07/16 00:08:17;;;;;;;3.88;1.65;;;15.60;99.90;;;;;;5094357;28;20090;-67
2022/07/16 00:10:43;;;;;;;2.00;1.10;;;15.60;99.90;;;;;;5094710;28;20044;-68
2022/07/16 00:13:09;;;;;;;5.20;1.08;;;15.40;99.90;;;;;;5081218;28;20116;-68
2022/07/16 00:15:34;;;;;;;3.88;1.55;;;15.60;99.90;;;;;;5074240;28;20044;-68
2022/07/16 00:20:44;;;;;;;2.42;1.30;;;15.60;99.90;;;;;;5074039;28;20052;-69
2022/07/16 00:23:10;;;;;;;2.95;1.50;;;15.70;99.90;;;;;;5074362;28;20032;-68
2022/07/16 00:25:35;;;;;;;3.00;1.20;;;15.80;99.90;;;;;;5074218;28;20040;-68
2022/07/16 00:28:02;;;;;;;5.93;1.50;;;15.80;99.90;;;;;;5074281;28;20064;-68
2022/07/16 00:30:29;;;;;;;4.18;1.45;;;15.90;99.90;;;;;;5074751;28;20084;-68
2022/07/16 00:32:54;;;;;;;1.88;1.23;;;16.00;99.90;;;;;;5077123;28;20056;-68
2022/07/16 00:35:20;;;;;;;4.75;1.38;;;16.00;99.90;;;;;;5085529;28;20054;-68
2022/07/16 00:37:46;;;;;;;4.72;1.60;;;16.10;99.90;;;;;;5097880;28;20127;-68
2022/07/16 00:40:11;;;;;;;3.70;1.60;;;16.20;99.90;;;;;;5098058;28;20087;-68
2022/07/16 00:42:37;;;;;;;3.60;1.70;;;16.20;99.90;;;;;;5097680;28;20044;-68
2022/07/16 00:45:04;;;;;;;4.57;1.83;;;16.30;99.90;;;;;;5097459;28;20376;-68
2022/07/16 00:47:30;;;;;;;3.83;1.40;;;16.30;99.90;;;;;;5097958;28;20040;-68
2022/07/16 00:49:56;;;;;;;3.08;1.30;;;16.30;99.90;;;;;;5097438;28;20097;-68
2022/07/16 00:52:22;;;;;;;2.15;1.25;;;16.40;99.90;;;;;;5097642;28;20119;-68
2022/07/16 00:54:49;;;;;;;15.60;1.70;;;16.40;99.90;;;;;;5097593;28;20060;-68
2022/07/16 00:57:14;;;;;;;5.68;1.58;;;16.40;99.90;;;;;;5079602;28;20060;-68
2022/07/16 00:59:40;;;;;;;3.45;1.65;;;16.40;99.90;;;;;;5097277;28;20376;-68
2022/07/16 01:02:05;;;;;;;5.35;1.70;;;16.40;99.90;;;;;;5097293;28;20126;-68
2022/07/16 01:04:31;;;;;;;4.53;1.85;;;16.40;99.90;;;;;;5091708;28;20040;-67
2022/07/16 01:06:57;;;;;;;4.03;1.60;;;16.40;99.90;;;;;;5077257;28;20404;-68
2022/07/16 01:09:26;;;;;;;2.97;1.77;;;16.30;99.90;;;;;;5077209;28;20123;-68
2022/07/16 01:11:52;;;;;;;6.05;2.58;;;16.20;99.90;;;;;;5077121;28;20080;-68
2022/07/16 01:14:18;;;;;;;3.13;1.63;;;16.20;99.90;;;;;;5078298;28;20090;-68
2022/07/16 01:16:45;;;;;;;4.75;1.85;;;16.20;99.90;;;;;;5077301;28;20044;-68
2022/07/16 01:19:12;;;;;;;4.15;2.03;;;16.10;99.90;;;;;;5076827;28;20080;-68
2022/07/16 01:21:38;;;;;;;6.13;1.90;;;16.10;99.90;;;;;;5059125;28;20059;-68
2022/07/16 01:24:03;;;;;;;3.80;2.13;;;16.00;99.90;;;;;;5076634;28;20087;-68
2022/07/16 01:26:29;;;;;;;3.70;1.77;;;16.00;99.90;;;;;;5076657;28;20072;-68
2022/07/16 01:28:55;;;;;;;4.45;1.90;;;16.00;99.90;;;;;;5079300;28;20070;-68
2022/07/16 01:31:20;;;;;;;5.45;2.38;;;15.90;99.90;;;;;;5085808;28;20094;-68
2022/07/16 01:34:24;;;;;;;4.38;1.98;;;16.00;99.90;;;;;;5076457;28;20484;-67
2022/07/16 01:36:31;;;;;;;4.75;2.05;;;16.00;99.90;;;;;;5076436;28;20048;-67
2022/07/16 01:38:57;;;;;;;3.17;1.63;;;16.00;99.90;;;;;;5076336;28;20108;-68
2022/07/16 01:41:22;;;;;;;5.18;1.83;;;15.90;99.90;;;;;;5076728;28;20395;-67
2022/07/16 01:43:48;;;;;;;4.82;1.60;;;16.00;99.90;;;;;;5076195;28;20044;-68
2022/07/16 01:46:14;;;;;;;6.30;1.50;;;16.00;99.90;;;;;;5076214;28;20040;-68
2022/07/16 01:48:39;;;;;;;3.88;1.77;;;16.00;99.90;;;;;;5076437;28;20036;-68
2022/07/16 01:51:05;;;;;;;3.17;1.60;;;16.00;99.90;;;;;;5076225;28;20369;-68
2022/07/16 01:53:30;;;;;;;3.88;1.50;;;15.80;99.90;;;;;;5076057;28;20041;-68
2022/07/16 01:55:57;;;;;;;6.97;2.35;;;15.90;99.90;;;;;;5075833;28;20399;-68
2022/07/16 01:58:23;;;;;;;4.85;1.83;;;15.90;99.90;;;;;;5076371;28;20110;-68
2022/07/16 02:00:48;;;;;;;2.95;1.55;;;15.90;99.90;;;;;;5094420;28;20032;-68
2022/07/16 02:03:14;;;;;;;9.40;1.75;;;15.80;99.90;;;;;;5096161;28;20447;-68
2022/07/16 02:05:40;;;;;;;3.92;1.33;;;15.80;99.90;;;;;;5096355;28;20040;-67
2022/07/16 02:08:07;;;;;;;4.20;1.67;;;15.90;99.90;;;;;;5095901;28;20487;-67
2022/07/16 02:10:33;;;;;;;8.40;1.85;;;15.80;99.90;;;;;;5095717;28;20551;-68
2022/07/16 02:12:59;;;;;;;2.30;1.40;;;15.80;99.90;;;;;;5096126;28;20407;-68
2022/07/16 02:15:25;;;;;;;3.67;1.50;;;15.80;99.90;;;;;;5077988;28;20036;-68
2022/07/16 02:17:50;;;;;;;6.65;1.90;;;15.70;99.90;;;;;;5075645;28;20037;-67
2022/07/16 02:20:17;;;;;;;4.38;1.60;;;15.70;99.90;;;;;;5075730;28;20110;-67
2022/07/16 02:22:43;;;;;;;4.25;1.70;;;15.80;99.90;;;;;;5075439;28;20140;-68
2022/07/16 02:25:10;;;;;;;3.83;1.48;;;15.70;99.90;;;;;;5075345;28;20196;-68
2022/07/16 02:27:36;;;;;;;3.15;1.33;;;15.70;99.90;;;;;;5075858;28;20048;-68
2022/07/16 02:30:04;;;;;;;2.50;1.30;;;15.70;99.90;;;;;;5087204;28;20456;-68
2022/07/16 02:32:29;;;;;;;7.85;1.55;;;15.60;99.90;;;;;;5095585;28;20051;-68
2022/07/16 02:34:55;;;;;;;6.13;1.42;;;15.50;99.90;;;;;;5095529;28;20143;-68
2022/07/16 02:37:21;;;;;;;1.67;1.10;;;15.50;99.90;;;;;;5095748;28;20052;-68
2022/07/16 02:39:46;;;;;;;4.38;1.85;;;15.30;99.90;;;;;;5095441;28;20374;-68
2022/07/16 02:42:12;;;;;;;4.53;1.83;;;15.30;99.90;;;;;;5095537;28;20094;-67
2022/07/16 02:44:37;;;;;;;9.20;1.95;;;15.20;99.90;;;;;;5095063;28;20040;-68
2022/07/16 02:47:03;;;;;;;2.58;1.10;;;15.20;99.90;;;;;;5095626;28;20052;-67
2022/07/16 02:49:29;;;;;;;3.25;1.50;;;15.20;99.90;;;;;;5095266;28;20438;-68
2022/07/16 02:51:54;;;;;;;6.13;1.90;;;15.20;99.90;;;;;;5094674;28;20051;-68
2022/07/16 02:54:20;;;;;;;3.22;1.67;;;15.20;99.90;;;;;;5094742;28;20056;-68
2022/07/16 02:56:45;;;;;;;6.28;1.75;;;15.20;99.90;;;;;;5095168;28;20112;-67
2022/07/16 02:59:11;;;;;;;3.47;1.65;;;15.10;99.90;;;;;;5085573;28;20036;-68
2022/07/16 03:01:36;;;;;;;3.70;1.30;;;15.10;99.90;;;;;;5090369;28;20128;-68
2022/07/16 03:04:02;;;;;;;2.97;1.42;;;15.10;99.90;;;;;;5095381;28;20050;-67
2022/07/16 03:06:28;;;;;;;5.90;1.70;;;15.10;99.90;;;;;;5094977;28;20444;-68
2022/07/16 03:08:53;;;;;;;2.25;1.13;;;15.00;99.90;;;;;;5095340;28;20100;-68
2022/07/16 03:11:19;;;;;;;5.00;1.50;;;14.90;99.90;;;;;;5077488;28;20105;-68
2022/07/16 03:13:44;;;;;;;5.03;1.50;;;14.90;99.90;;;;;;5095149;28;20369;-67
2022/07/16 03:16:10;;;;;;;1.98;1.15;;;14.90;99.90;;;;;;5092556;28;20047;-68
2022/07/16 03:18:36;;;;;;;6.05;1.63;;;14.80;99.90;;;;;;5074866;28;20476;-67
2022/07/16 03:21:01;;;;;;;3.97;1.63;;;14.80;99.90;;;;;;5091721;28;20048;-68
2022/07/16 03:23:27;;;;;;;4.60;1.65;;;14.70;99.90;;;;;;5095205;28;20372;-67
2022/07/16 03:25:52;;;;;;;2.83;1.30;;;14.70;99.90;;;;;;5094880;28;20056;-68
2022/07/16 03:28:18;;;;;;;2.22;1.23;;;14.60;99.90;;;;;;5094881;28;20040;-68
2022/07/16 03:30:43;;;;;;;4.07;1.40;;;14.60;99.90;;;;;;5095586;28;20395;-68
2022/07/16 03:33:09;;;;;;;2.80;1.38;;;14.50;99.90;;;;;;5094955;28;20048;-68
2022/07/16 03:35:35;;;;;;;2.95;1.30;;;14.40;99.90;;;;;;5079088;28;20110;-68
2022/07/16 03:40:44;;;;;;;5.40;2.05;;;14.40;99.90;;;;;;5074832;28;20045;-67
2022/07/16 03:43:10;;;;;;;6.55;1.60;;;14.30;99.90;;;;;;5074387;28;20127;-67
2022/07/16 03:45:36;;;;;;;3.88;1.60;;;14.30;99.90;;;;;;5074589;28;20045;-68
2022/07/16 03:48:01;;;;;;;6.88;1.85;;;14.30;99.90;;;;;;5074646;28;20040;-68
2022/07/16 03:50:27;;;;;;;6.20;1.60;;;14.30;99.90;;;;;;5090718;28;20056;-68
2022/07/16 03:52:53;;;;;;;3.45;1.50;;;14.20;99.90;;;;;;5094379;28;20051;-68
2022/07/16 03:55:18;;;;;;;4.70;1.60;;;14.20;99.90;;;;;;5094830;28;20067;-68
2022/07/16 03:57:44;;;;;;;2.45;1.40;;;14.20;99.90;;;;;;5077225;28;20123;-67
2022/07/16 04:00:11;;;;;;;4.47;1.55;;;14.20;99.90;;;;;;5094669;28;20036;-67
2022/07/16 04:02:36;;;;;;;6.43;1.98;;;14.20;99.90;;;;;;5094721;28;20055;-67
2022/07/16 04:05:03;;;;;;;3.80;1.45;;;14.30;99.90;;;;;;5079167;28;20048;-68
2022/07/16 04:07:29;;;;;;;3.67;1.60;;;14.30;99.90;;;;;;5096815;28;20391;-67
2022/07/16 04:09:54;;;;;;;5.00;1.38;;;14.40;99.90;;;;;;5080931;28;20055;-68
2022/07/16 04:12:24;;;;;;;4.78;1.50;;;14.40;99.90;;;;;;5080762;28;20407;-67
2022/07/16 04:14:53;;;;;;;4.80;1.77;;;14.50;99.90;;;;;;5098279;28;20449;-67
2022/07/16 04:17:19;;;;;;;4.78;1.45;;;14.50;99.90;;;;;;5098066;28;20437;-68
2022/07/16 04:19:45;;;;;;;3.28;1.42;;;14.50;99.90;;;;;;5087342;28;20067;-68
2022/07/16 04:22:11;;;;;;;3.97;1.65;;;14.40;99.90;;;;;;5077658;28;20080;-67
2022/07/16 04:24:36;;;;;;;7.57;1.73;;;14.50;99.90;;;;;;5078043;28;20135;-67
2022/07/16 04:27:02;;;;;;;3.25;1.58;;;14.40;99.90;;;;;;5077825;28;20123;-68
2022/07/16 04:29:28;;;;;;;6.10;2.05;;;14.40;99.90;;;;;;5077346;28;20044;-67
2022/07/16 04:31:54;;;;;;;3.38;1.40;;;14.40;99.90;;;;;;5082303;28;20044;-68
2022/07/16 04:34:19;;;;;;;4.30;1.60;;;14.50;99.90;;;;;;5097086;28;20046;-68
2022/07/16 04:36:45;;;;;;;6.40;1.65;;;14.40;99.90;;;;;;5095511;28;20118;-68
2022/07/16 04:39:11;;;;;;;7.93;2.15;;;14.40;99.90;;;;;;5098643;28;20076;-68
2022/07/16 04:41:36;;;;;;;4.78;1.45;;;14.40;99.90;;;;;;5098135;28;20079;-67
2022/07/16 04:44:02;;;;;;;5.07;1.38;;;14.40;99.90;;;;;;5097923;28;20051;-68
2022/07/16 04:46:28;;;;;;;2.55;1.30;;;14.40;99.90;;;;;;5097731;28;20134;-68
2022/07/16 04:48:56;;;;;;;4.95;1.27;;;14.50;99.90;;;;;;5095955;28;20048;-70
2022/07/16 04:51:24;;;;;;;3.65;1.40;;;14.50;99.90;;;;;;5088680;28;20449;-71
2022/07/16 04:53:49;;;;;;;7.55;1.63;;;14.50;99.90;;;;;;5077141;28;20028;-69
2022/07/16 04:56:15;;;;;;;7.00;1.75;;;14.60;99.90;;;;;;5091134;28;20055;-68
2022/07/16 04:58:40;;;;;;;7.93;1.35;;;14.60;99.90;;;;;;5097779;28;20113;-68
2022/07/16 05:01:07;;;;;;;4.28;1.60;;;14.80;99.90;;;;;;5097745;28;20037;-69
2022/07/16 05:03:32;;;;;;;5.57;1.65;;;14.90;99.90;;;;;;5097811;28;20052;-68
2022/07/16 05:05:58;;;;;;;7.22;1.77;;;15.00;99.90;;;;;;5097620;28;20127;-68
2022/07/16 05:08:24;;;;;;;3.88;1.58;;;15.10;99.90;;;;;;5083637;28;20047;-69
2022/07/16 05:10:49;;;;;;;3.55;1.48;;;15.40;99.90;;;;;;5077210;28;20040;-69
2022/07/16 05:13:15;;;;;;;5.78;1.60;;;15.60;99.90;;;;;;5077430;28;20105;-68
2022/07/16 05:15:40;;;;;;;7.82;2.00;;;15.60;99.90;;;;;;5084749;28;20415;-70
2022/07/16 05:18:08;;;;;;;9.50;1.27;;;15.70;99.90;;;;;;5116587;28;20432;-69
2022/07/16 05:20:34;;;;;;;3.05;1.27;;;15.80;99.90;;;;;;5117641;28;20053;-69
2022/07/16 05:22:59;;;;;;;3.90;1.45;;;15.90;99.90;;;;;;5117517;28;20039;-70
2022/07/16 05:25:26;;;;;;;4.38;1.10;;;16.30;99.90;;;;;;5114681;28;20048;-69
2022/07/16 05:27:52;;;;;;;4.97;1.20;;;17.00;99.90;;;;;;5103141;28;20404;-70
2022/07/16 05:30:17;;;;;;;3.13;1.23;;;18.30;99.90;;;;;;5113490;28;20064;-69
2022/07/16 05:32:44;;;;;;;12.00;1.50;;;19.30;99.90;;;;;;5103478;28;20398;-69
2022/07/16 05:35:11;;;;;;;4.28;1.52;;;20.40;99.90;;;;;;5106092;28;20420;-68
2022/07/16 05:37:38;;;;;;;2.22;0.90;;;21.40;99.90;;;;;;5096823;28;20074;-69
2022/07/16 05:40:04;;;;;;;3.13;1.02;;;22.30;99.90;;;;;;5097061;28;20363;-70
2022/07/16 05:42:29;;;;;;;6.32;1.35;;;23.20;99.90;;;;;;5095713;28;20031;-69
2022/07/16 05:44:55;;;;;;;3.72;1.30;;;23.60;99.90;;;;;;5085536;28;20382;-69
2022/07/16 05:47:21;;;;;;;2.28;0.80;;;23.50;99.90;;;;;;5076254;28;20044;-69
2022/07/16 05:49:46;;;;;;;9.02;1.17;;;23.20;99.90;;;;;;5093140;28;20040;-69
2022/07/16 05:52:12;;;;;;;6.13;1.20;;;23.90;99.90;;;;;;5106541;28;20035;-70
2022/07/16 05:54:37;;;;;;;5.57;0.93;;;24.40;99.10;;;;;;5102282;28;20060;-69
2022/07/16 05:57:03;;;;;;;4.47;1.27;;;25.10;96.90;;;;;;5112942;28;20043;-70
2022/07/16 05:59:29;;;;;;;3.55;1.00;;;25.20;96.60;;;;;;5073995;28;20050;-68
2022/07/16 06:01:55;;;;;;;3.67;0.77;;;25.30;96.00;;;;;;5075697;28;20124;-69
2022/07/16 06:04:20;;;;;;;2.40;0.80;;;25.20;97.20;;;;;;5076317;28;20052;-70
2022/07/16 06:06:46;;;;;;;5.50;1.05;;;25.70;95.80;;;;;;5076455;28;20338;-69
2022/07/16 06:09:12;;;;;;;7.07;1.40;;;26.10;95.10;;;;;;5075976;28;20098;-70
2022/07/16 06:11:38;;;;;;;5.20;0.80;;;26.10;95.40;;;;;;5076305;28;20052;-69
2022/07/16 06:14:04;;;;;;;4.57;1.38;;;26.40;94.10;;;;;;5076423;28;20056;-70
2022/07/16 06:16:30;;;;;;;3.28;1.30;;;26.30;93.90;;;;;;5075382;28;20059;-70
2022/07/16 06:18:55;;;;;;;3.53;1.10;;;25.90;92.80;;;;;;5075936;28;20036;-70
2022/07/16 06:21:21;;;;;;;3.78;0.80;;;26.00;93.90;;;;;;5075300;28;20036;-69
2022/07/16 06:23:47;;;;;;;3.15;1.05;;;26.40;92.50;;;;;;5080839;28;20419;-70
2022/07/16 06:26:12;;;;;;;2.95;0.73;;;26.10;91.10;;;;;;5075693;28;20055;-70
2022/07/16 06:28:38;;;;;;;3.40;0.70;;;26.00;91.70;;;;;;5075943;28;20045;-69
2022/07/16 06:31:03;;;;;;;3.22;0.50;;;26.40;92.70;;;;;;5075829;28;20044;-71
2022/07/16 06:33:29;;;;;;;7.32;0.93;;;26.90;91.80;;;;;;5075271;28;20044;-70
2022/07/16 06:35:54;;;;;;;4.57;1.02;;;27.00;92.10;;;;;;5075887;28;20055;-72
2022/07/16 06:38:20;;;;;;;6.05;0.75;;;27.30;91.10;;;;;;5075116;28;20059;-71
2022/07/16 06:40:46;;;;;;;3.90;0.85;;;27.20;90.90;;;;;;5075784;28;20072;-71
2022/07/16 06:43:12;;;;;;;3.92;0.82;;;26.90;89.60;;;;;;5075150;28;20334;-71
2022/07/16 06:45:37;;;;;;;3.33;0.68;;;26.70;89.50;;;;;;5074589;28;20036;-70
2022/07/16 06:48:03;;;;;;;5.75;1.15;;;26.60;90.80;;;;;;5057350;28;20052;-68
2022/07/16 06:50:28;;;;;;;3.60;0.80;;;26.80;90.20;;;;;;5075587;28;20041;-68
2022/07/16 06:52:54;;;;;;;4.00;0.80;;;26.60;88.30;;;;;;5075351;28;20048;-68
2022/07/16 06:55:20;;;;;;;6.03;0.95;;;26.70;88.30;;;;;;5074490;28;20080;-68
2022/07/16 06:57:45;;;;;;;5.47;0.77;;;26.70;88.80;;;;;;5074815;28;20041;-68
2022/07/16 07:00:12;;;;;;;2.60;0.65;;;27.10;88.80;;;;;;5074785;28;20365;-68
2022/07/16 07:02:37;;;;;;;2.90;1.02;;;26.70;88.80;;;;;;5074591;28;20408;-68
2022/07/16 07:05:04;;;;;;;4.60;0.73;;;26.70;88.90;;;;;;5074766;28;20044;-68
2022/07/16 07:07:29;;;;;;;1.90;0.80;;;25.60;88.80;;;;;;5074667;28;20446;-69
2022/07/16 07:09:55;;;;;;;4.57;0.90;;;24.70;88.00;;;;;;5074842;28;20051;-71
2022/07/16 07:12:21;;;;;;;4.45;0.50;;;23.50;90.40;;;;;;5074925;28;20520;-70
2022/07/16 07:14:46;;;;;;;3.75;1.10;;;22.70;90.50;;;;;;5074866;28;20063;-70
2022/07/16 07:17:12;;;;;;;2.47;0.55;;;22.10;91.10;;;;;;5057895;28;20120;-70
2022/07/16 07:19:37;;;;;;;2.40;0.80;;;21.60;91.80;;;;;;5075197;28;20330;-71
2022/07/16 07:22:03;;;;;;;1.85;1.25;;;21.70;91.90;;;;;;5075075;28;20056;-70
2022/07/16 07:24:29;;;;;;;1.67;0.50;;;21.40;92.10;;;;;;5074676;28;20128;-71
2022/07/16 07:26:54;;;;;;;2.42;0.70;;;21.70;91.60;;;;;;5074696;28;20055;-71
2022/07/16 07:29:20;;;;;;;5.25;0.70;;;22.20;91.00;;;;;;5074637;28;20084;-71
2022/07/16 07:31:45;;;;;;;1.83;0.77;;;23.10;90.60;;;;;;5074525;28;20040;-71
2022/07/16 07:34:11;;;;;;;3.55;1.15;;;23.20;90.20;;;;;;5056974;28;20048;-71
2022/07/16 07:36:37;;;;;;;5.20;0.98;;;23.90;89.60;;;;;;5074646;28;20099;-71
2022/07/16 07:39:02;;;;;;;4.28;0.80;;;24.10;89.50;;;;;;5075133;28;20120;-71
2022/07/16 07:41:28;;;;;;;2.50;0.98;;;23.90;90.20;;;;;;5077873;28;20098;-71
2022/07/16 07:43:54;;;;;;;3.60;0.77;;;23.90;88.20;;;;;;5078483;28;20115;-71
2022/07/16 07:46:20;;;;;;;4.63;0.77;;;24.40;88.30;;;;;;5078561;28;20070;-71
2022/07/16 07:48:46;;;;;;;1.45;0.50;;;25.00;85.80;;;;;;5078579;28;20117;-71
2022/07/16 07:51:12;;;;;;;2.15;0.90;;;25.60;89.00;;;;;;5078310;28;20465;-71
2022/07/16 07:53:38;;;;;;;1.10;0.65;;;25.50;86.20;;;;;;5078470;28;20041;-71
2022/07/16 07:56:04;;;;;;;2.70;0.65;;;25.50;86.30;;;;;;5078171;28;20369;-71
2022/07/16 07:58:29;;;;;;;3.97;0.70;;;25.60;86.10;;;;;;5078038;28;20484;-71
2022/07/16 08:00:55;;;;;;;3.42;0.80;;;25.40;85.70;;;;;;5078823;28;20040;-70
2022/07/16 08:03:21;;;;;;;3.50;0.70;;;25.40;84.60;;;;;;5078564;28;20044;-71
2022/07/16 08:05:47;;;;;;;4.63;0.88;;;24.10;85.40;;;;;;5078329;28;20452;-70
2022/07/16 08:08:13;;;;;;;1.50;0.50;;;23.40;87.10;;;;;;5078190;28;20114;-70
2022/07/16 08:10:39;;;;;;;3.38;0.70;;;23.20;88.80;;;;;;5077898;28;20044;-71
2022/07/16 08:13:05;;;;;;;2.97;0.98;;;23.90;88.30;;;;;;5077910;28;20117;-70
2022/07/16 08:15:31;;;;;;;6.38;0.88;;;24.20;87.20;;;;;;5078080;28;20151;-71
2022/07/16 08:17:57;;;;;;;2.90;0.70;;;24.00;86.50;;;;;;5078546;28;20105;-70
2022/07/16 08:20:23;;;;;;;1.63;0.60;;;23.60;87.40;;;;;;5077874;28;20048;-71
2022/07/16 08:22:48;;;;;;;1.33;0.73;;;23.10;87.70;;;;;;5077847;28;20036;-71
2022/07/16 08:28:15;;;;;;;3.20;0.95;;;22.20;89.90;;;;;;5027464;28;20052;-70
2022/07/16 08:30:42;;;;;;;6.47;1.05;;;21.60;90.80;;;;;;5078043;28;20054;-70
2022/07/16 08:33:08;;;;;;;4.05;0.85;;;21.30;91.30;;;;;;5078404;28;20358;-70
2022/07/16 08:35:34;;;;;;;4.45;0.90;;;21.20;91.50;;;;;;5077649;28;20036;-71
2022/07/16 08:37:59;;;;;;;5.30;0.70;;;21.30;91.60;;;;;;5077302;28;20048;-71
2022/07/16 08:40:25;;;;;;;8.88;1.25;;;21.40;91.70;;;;;;5077575;28;20056;-71
2022/07/16 08:42:52;;;;;;;1.55;0.52;;;22.20;91.50;;;;;;5077524;28;20460;-70
2022/07/16 08:45:20;;;;;;;2.53;0.88;;;22.70;91.00;;;;;;5077404;28;20045;-70
2022/07/16 08:47:46;;;;;;;4.68;0.60;;;22.60;91.10;;;;;;5077353;28;20055;-71
2022/07/16 08:50:14;;;;;;;3.35;0.80;;;22.80;91.50;;;;;;5078025;28;20448;-71
2022/07/16 08:52:42;;;;;;;2.67;0.52;;;23.30;91.20;;;;;;5075862;28;20099;-71
2022/07/16 08:55:08;;;;;;;3.05;1.05;;;23.70;90.90;;;;;;5075161;28;20052;-71
2022/07/16 08:57:37;;;;;;;3.92;0.95;;;23.40;90.50;;;;;;5077533;28;20072;-70
2022/07/16 09:00:06;;;;;;;3.80;1.00;;;22.90;90.90;;;;;;5077358;28;20436;-71
2022/07/16 09:02:32;;;;;;;3.85;1.10;;;22.50;91.30;;;;;;5059738;28;20041;-71
2022/07/16 09:04:59;;;;;;;5.10;0.85;;;22.00;91.90;;;;;;5077086;28;20041;-71
2022/07/16 09:07:25;;;;;;;9.18;0.85;;;21.60;92.10;;;;;;5077570;28;20441;-72
2022/07/16 09:09:50;;;;;;;3.10;0.73;;;21.30;92.50;;;;;;5077254;28;20090;-71
2022/07/16 09:12:33;;;;;;;30.95;1.52;;;21.00;92.70;;;;;;5077373;28;20052;-70
2022/07/16 09:14:59;;;;;;;;;;;20.70;92.70;;;;;;5077362;28;20033;-71
2022/07/16 09:17:25;;;;;;;2.80;0.80;;;20.50;93.30;;;;;;5077040;28;19928;-70
2022/07/16 09:19:51;;;;;;;2.00;0.90;;;20.30;93.20;;;;;;5076754;28;20052;-70
2022/07/16 09:22:16;;;;;;;4.10;0.98;;;20.50;94.00;;;;;;5077186;28;20365;-71
2022/07/16 09:24:47;;;;;;;4.82;0.90;;;21.00;93.80;;;;;;5076869;28;20472;-71
2022/07/16 09:27:16;;;;;;;5.55;1.30;;;21.40;92.70;;;;;;5076574;28;20044;-71
2022/07/16 09:29:46;;;;;;;2.95;0.75;;;21.60;92.90;;;;;;5059443;28;20105;-70
2022/07/16 09:32:13;;;;;;;2.03;0.77;;;21.90;92.30;;;;;;5077181;28;20047;-72
2022/07/16 09:34:39;;;;;;;1.15;0.60;;;21.80;91.80;;;;;;5076720;28;20096;-71
2022/07/16 09:37:06;;;;;;;1.55;0.65;;;21.80;91.40;;;;;;5076516;28;20469;-71
2022/07/16 09:39:34;;;;;;;3.10;0.73;;;21.80;91.40;;;;;;5076455;28;20090;-71
2022/07/16 09:42:00;;;;;;;1.90;0.75;;;21.80;91.60;;;;;;5076680;28;20037;-71
2022/07/16 09:44:30;;;;;;;2.30;0.70;;;21.90;91.00;;;;;;5076280;28;20040;-71
2022/07/16 09:47:06;;;;;;;2.05;0.70;;;21.90;91.00;;;;;;5076170;28;20049;-71
2022/07/16 09:49:36;;;;;;;2.88;0.70;;;22.10;90.30;;;;;;5076271;28;20048;-70
2022/07/16 09:52:07;;;;;;;2.88;0.70;;;22.00;89.70;;;;;;5076474;28;20459;-71
2022/07/16 09:54:35;;;;;;;2.42;0.80;;;22.30;90.10;;;;;;5076532;28;20056;-71
2022/07/16 09:57:04;;;;;;;5.22;1.15;;;22.40;88.60;;;;;;5076698;28;20468;-71
2022/07/16 09:59:31;;;;;;;4.18;0.70;;;22.40;90.40;;;;;;5075692;28;20095;-72
2022/07/16 10:01:56;;;;;;;10.93;1.48;;;22.20;90.80;;;;;;5076262;28;20044;-70
2022/07/16 10:04:23;;;;;;;3.40;0.60;;;22.10;90.70;;;;;;5075496;28;20056;-71
2022/07/16 10:06:49;;;;;;;3.17;0.73;;;21.70;90.30;;;;;;5075853;28;20377;-70
2022/07/16 10:09:15;;;;;;;3.53;0.68;;;21.60;90.60;;;;;;5076052;28;20040;-71
2022/07/16 10:11:43;;;;;;;4.78;0.80;;;21.40;90.40;;;;;;5075828;28;20492;-71
2022/07/16 10:14:09;;;;;;;3.58;0.82;;;21.50;90.10;;;;;;5075701;28;20080;-70
2022/07/16 10:16:45;;;;;;;3.88;1.10;;;21.30;90.30;;;;;;5076259;28;20040;-71
2022/07/16 10:19:11;;;;;;;3.90;1.05;;;21.20;90.40;;;;;;5075657;28;20178;-71
2022/07/16 10:21:37;;;;;;;2.25;0.90;;;21.40;90.90;;;;;;5075625;28;20055;-71
2022/07/16 10:24:13;;;;;;;2.25;1.00;;;21.60;90.30;;;;;;5075460;28;20044;-71
2022/07/16 10:26:39;;;;;;;2.05;0.60;;;22.00;90.80;;;;;;5058596;28;20056;-71
2022/07/16 10:29:05;;;;;;;1.08;0.55;;;21.90;87.60;;;;;;5075231;28;20479;-71
2022/07/16 10:31:41;;;;;;;1.73;0.70;;;22.00;87.90;;;;;;5075449;28;20037;-71
2022/07/16 10:34:13;;;;;;;1.27;0.70;;;22.10;87.40;;;;;;5075092;28;20044;-71
2022/07/16 10:36:55;;;;;;;1.92;0.68;;;22.30;87.90;;;;;;5075311;28;20193;-71
2022/07/16 10:39:24;;;;;;;2.97;1.00;;;22.50;87.70;;;;;;5075833;28;20105;-71
2022/07/16 10:41:55;;;;;;;6.03;1.33;;;22.80;88.20;;;;;;5075890;28;20111;-71
2022/07/16 10:44:23;;;;;;;4.60;0.68;;;23.00;85.70;;;;;;5075150;28;20051;-71
2022/07/16 10:47:01;;;;;;;1.38;0.55;;;23.10;87.70;;;;;;5075357;28;20361;-71
2022/07/16 10:49:29;;;;;;;4.13;0.70;;;23.20;85.70;;;;;;5075099;28;20044;-71
2022/07/16 10:52:14;;;;;;;5.55;0.82;;;22.70;86.40;;;;;;5057627;28;20044;-70
2022/07/16 10:54:51;;;;;;;2.53;0.70;;;22.00;87.30;;;;;;5075387;28;20067;-71
2022/07/16 10:57:17;;;;;;;1.52;0.70;;;21.90;89.70;;;;;;5075231;28;20052;-70
2022/07/16 10:59:46;;;;;;;1.65;0.60;;;21.80;89.60;;;;;;5075367;28;20044;-71
2022/07/16 11:02:14;;;;;;;2.38;0.50;;;21.80;90.00;;;;;;5074871;28;20500;-71
2022/07/16 11:04:41;;;;;;;1.60;0.73;;;22.00;90.10;;;;;;5075356;28;20044;-71
2022/07/16 11:07:08;;;;;;;1.70;0.52;;;22.10;90.00;;;;;;5057838;28;20045;-71
2022/07/16 11:09:40;;;;;;;5.57;1.15;;;22.30;90.10;;;;;;5074920;28;20079;-71
2022/07/16 11:12:18;;;;;;;3.17;1.02;;;22.40;89.60;;;;;;5074798;28;20051;-71
2022/07/16 11:14:48;;;;;;;2.30;0.80;;;22.50;90.20;;;;;;5039196;28;20063;-71
2022/07/16 11:17:16;;;;;;;2.42;0.50;;;22.80;88.10;;;;;;5057161;28;20091;-71
2022/07/16 11:19:44;;;;;;;1.50;0.77;;;23.10;88.80;;;;;;5074902;28;20425;-71
2022/07/16 11:22:10;;;;;;;4.15;0.80;;;23.00;88.10;;;;;;5074728;28;20036;-70
2022/07/16 11:24:44;;;;;;;3.80;0.68;;;22.70;88.50;;;;;;5075225;28;20123;-71
2022/07/16 11:27:09;;;;;;;2.88;0.98;;;22.40;88.20;;;;;;5074620;28;20044;-70
2022/07/16 11:29:35;;;;;;;3.15;0.60;;;22.20;89.80;;;;;;5074684;28;20041;-71
2022/07/16 11:32:00;;;;;;;2.95;0.63;;;22.40;89.90;;;;;;5074874;28;20040;-71
2022/07/16 11:34:32;;;;;;;3.30;0.70;;;22.80;89.00;;;;;;5074586;28;20055;-71
2022/07/16 11:36:58;;;;;;;2.90;0.60;;;22.80;88.30;;;;;;5074655;28;20423;-71
2022/07/16 11:39:26;;;;;;;2.35;0.60;;;22.70;89.20;;;;;;5074705;28;20052;-71
2022/07/16 11:41:56;;;;;;;3.20;1.17;;;22.50;90.00;;;;;;5074524;28;20411;-70
2022/07/16 11:44:29;;;;;;;2.67;0.93;;;22.40;90.60;;;;;;5074517;28;20076;-71
2022/07/16 11:47:00;;;;;;;6.57;1.20;;;22.30;90.70;;;;;;5074397;28;20060;-71
2022/07/16 11:49:33;;;;;;;2.60;0.63;;;22.40;90.80;;;;;;5074515;28;20044;-71
2022/07/16 11:52:00;;;;;;;;;;;22.20;90.40;;;;;;5074917;28;20127;-70
2022/07/16 11:54:27;;;;;;;5.32;1.00;;;22.00;90.20;;;;;;5074322;28;19932;-71
2022/07/16 11:56:54;;;;;;;5.72;0.90;;;22.00;90.50;;;;;;5074874;28;20048;-70
2022/07/16 11:59:28;;;;;;;4.43;0.95;;;22.00;91.20;;;;;;5074373;28;20040;-70
2022/07/16 12:02:02;;;;;;;1.85;0.70;;;22.10;91.10;;;;;;5074976;28;20040;-70
2022/07/16 12:04:38;;;;;;;6.25;1.30;;;22.40;91.00;;;;;;5074310;28;20045;-70
2022/07/16 12:07:16;;;;;;;5.38;0.80;;;22.60;91.10;;;;;;5074879;28;20077;-70
2022/07/16 12:09:44;;;;;;;2.45;0.60;;;22.80;90.70;;;;;;5074403;28;20128;-70
2022/07/16 12:12:14;;;;;;;4.47;0.88;;;22.70;90.60;;;;;;5074352;28;20106;-71
2022/07/16 12:15:01;;;;;;;2.22;0.60;;;22.90;90.50;;;;;;5074362;28;20056;-70
2022/07/16 12:17:28;;;;;;;4.35;1.15;;;22.90;90.50;;;;;;5074738;28;20063;-70
2022/07/16 12:20:22;;;;;;;4.45;1.20;;;23.30;89.90;;;;;;5074756;28;20040;-71
2022/07/16 12:22:59;;;;;;;9.38;1.23;;;23.00;88.70;;;;;;5074117;28;20055;-71
2022/07/16 12:25:28;;;;;;;3.05;0.70;;;22.60;90.10;;;;;;5073977;28;20055;-71
2022/07/16 12:28:02;;;;;;;5.28;1.00;;;22.70;89.40;;;;;;5077129;28;20075;-71
2022/07/16 12:30:41;;;;;;;1.83;0.80;;;22.60;90.30;;;;;;5078275;28;20045;-71
2022/07/16 12:33:15;;;;;;;2.47;0.80;;;23.00;90.60;;;;;;5077725;28;20083;-71
2022/07/16 12:35:43;;;;;;;5.00;0.98;;;23.30;90.20;;;;;;5077470;28;20488;-71
2022/07/16 12:38:36;;;;;;;5.60;1.00;;;23.40;89.60;;;;;;5078048;28;20032;-71
2022/07/16 12:41:02;;;;;;;2.83;1.10;;;23.50;89.40;;;;;;5041063;28;20064;-71
2022/07/16 12:43:28;;;;;;;4.32;1.35;;;23.40;90.10;;;;;;5077699;28;20067;-71
2022/07/16 12:45:54;;;;;;;5.70;1.00;;;22.80;89.30;;;;;;5077486;28;20036;-71
2022/07/16 12:48:20;;;;;;;5.50;0.90;;;22.50;90.50;;;;;;5077341;28;20044;-71
2022/07/16 12:50:45;;;;;;;2.25;0.68;;;22.50;90.10;;;;;;5077433;28;20047;-70
2022/07/16 12:53:11;;;;;;;4.18;0.80;;;22.30;90.10;;;;;;5077648;28;20041;-72
2022/07/16 13:01:05;;;;;;;4.13;1.15;;;22.20;90.80;;;;;;5077137;28;20040;-70
2022/07/16 13:03:30;;;;;;;3.38;0.65;;;22.50;90.40;;;;;;5077537;28;20449;-71